sensor_id;sensor_type;location;lat;lon;timestamp;temperature;humidity
4461;DHT22;2243;48.812;9.232;2022-12-24T00:00:48;12.60;99.90
4461;DHT22;2243;48.812;9.232;2022-12-24T00:03:19;12.60;99.90
4461;DHT22;2243;48.812;9.232;2022-12-24T00:05:50;12.60;99.90
4461;DHT22;2243;48.812;9.232;2022-12-24T00:08:22;12.60;99.90
4461;DHT22;2243;48.812;9.232;2022-12-24T00:10:53;12.50;99.90
4461;DHT22;2243;48.812;9.232;2022-12-24T00:13:24;12.40;99.90
4461;DHT22;2243;48.812;9.232;2022-12-24T00:15:55;12.40;99.90
4461;DHT22;2243;48.812;9.232;2022-12-24T00:18:26;12.50;99.90
4461;DHT22;2243;48.812;9.232;2022-12-24T00:20:57;12.50;99.90
4461;DHT22;2243;48.812;9.232;2022-12-24T00:23:28;12.50;99.90
4461;DHT22;2243;48.812;9.232;2022-12-24T00:25:59;12.40;99.90
4461;DHT22;2243;48.812;9.232;2022-12-24T00:28:30;12.30;99.90
4461;DHT22;2243;48.812;9.232;2022-12-24T00:31:13;12.30;99.90
4461;DHT22;2243;48.812;9.232;2022-12-24T00:33:46;12.40;99.90
4461;DHT22;2243;48.812;9.232;2022-12-24T00:36:18;12.30;99.90
4461;DHT22;2243;48.812;9.232;2022-12-24T00:38:49;12.30;99.90
4461;DHT22;2243;48.812;9.232;2022-12-24T00:41:20;12.30;99.90
4461;DHT22;2243;48.812;9.232;2022-12-24T00:43:57;12.30;99.90
4461;DHT22;2243;48.812;9.232;2022-12-24T00:46:30;12.30;99.90
4461;DHT22;2243;48.812;9.232;2022-12-24T00:49:03;12.40;99.90
4461;DHT22;2243;48.812;9.232;2022-12-24T00:51:35;12.40;99.90
4461;DHT22;2243;48.812;9.232;2022-12-24T00:54:06;12.30;99.90
4461;DHT22;2243;48.812;9.232;2022-12-24T00:56:37;12.20;99.90
4461;DHT22;2243;48.812;9.232;2022-12-24T00:59:08;12.30;99.90
4461;DHT22;2243;48.812;9.232;2022-12-24T01:01:39;12.30;99.90
4461;DHT22;2243;48.812;9.232;2022-12-24T01:04:10;12.30;99.90
4461;DHT22;2243;48.812;9.232;2022-12-24T01:06:59;12.30;99.90
4461;DHT22;2243;48.812;9.232;2022-12-24T01:09:30;12.30;99.90
4461;DHT22;2243;48.812;9.232;2022-12-24T01:12:01;12.40;99.90
4461;DHT22;2243;48.812;9.232;2022-12-24T01:14:32;12.40;99.90
4461;DHT22;2243;48.812;9.232;2022-12-24T01:17:03;12.50;99.90
4461;DHT22;2243;48.812;9.232;2022-12-24T01:19:34;12.40;99.90
4461;DHT22;2243;48.812;9.232;2022-12-24T01:22:05;12.40;99.90
4461;DHT22;2243;48.812;9.232;2022-12-24T01:24:36;12.40;99.90
4461;DHT22;2243;48.812;9.232;2022-12-24T01:27:08;12.30;99.90
4461;DHT22;2243;48.812;9.232;2022-12-24T01:29:38;12.30;99.90
4461;DHT22;2243;48.812;9.232;2022-12-24T01:32:09;12.30;99.90
4461;DHT22;2243;48.812;9.232;2022-12-24T01:34:40;12.30;99.90
4461;DHT22;2243;48.812;9.232;2022-12-24T01:37:11;12.30;99.90
4461;DHT22;2243;48.812;9.232;2022-12-24T01:39:42;12.30;99.90
4461;DHT22;2243;48.812;9.232;2022-12-24T01:42:21;12.30;99.90
4461;DHT22;2243;48.812;9.232;2022-12-24T01:45:42;12.20;99.90
4461;DHT22;2243;48.812;9.232;2022-12-24T01:48:20;12.10;99.90
4461;DHT22;2243;48.812;9.232;2022-12-24T01:51:04;12.00;99.90
4461;DHT22;2243;48.812;9.232;2022-12-24T01:53:57;11.80;99.90
4461;DHT22;2243;48.812;9.232;2022-12-24T01:56:31;11.60;99.90
4461;DHT22;2243;48.812;9.232;2022-12-24T01:59:09;11.40;99.90
4461;DHT22;2243;48.812;9.232;2022-12-24T02:01:42;11.30;99.90
4461;DHT22;2243;48.812;9.232;2022-12-24T02:07:31;11.10;99.90
4461;DHT22;2243;48.812;9.232;2022-12-24T02:10:04;11.10;99.90
4461;DHT22;2243;48.812;9.232;2022-12-24T02:12:36;11.00;99.90
4461;DHT22;2243;48.812;9.232;2022-12-24T02:15:11;10.90;99.90
4461;DHT22;2243;48.812;9.232;2022-12-24T02:26:52;10.60;99.90
4461;DHT22;2243;48.812;9.232;2022-12-24T02:35:56;10.50;99.90
4461;DHT22;2243;48.812;9.232;2022-12-24T02:41:29;10.60;99.90
4461;DHT22;2243;48.812;9.232;2022-12-24T02:44:26;10.60;99.90
4461;DHT22;2243;48.812;9.232;2022-12-24T02:46:59;10.70;99.90
4461;DHT22;2243;48.812;9.232;2022-12-24T02:49:31;10.60;99.90
4461;DHT22;2243;48.812;9.232;2022-12-24T02:52:02;10.60;99.90
4461;DHT22;2243;48.812;9.232;2022-12-24T02:54:33;10.60;99.90
4461;DHT22;2243;48.812;9.232;2022-12-24T03:10:17;10.30;99.90
4461;DHT22;2243;48.812;9.232;2022-12-24T03:13:13;10.20;99.90
4461;DHT22;2243;48.812;9.232;2022-12-24T03:15:46;10.10;99.90
4461;DHT22;2243;48.812;9.232;2022-12-24T03:18:20;10.10;99.90
4461;DHT22;2243;48.812;9.232;2022-12-24T03:20:55;10.10;99.90
4461;DHT22;2243;48.812;9.232;2022-12-24T03:23:28;10.20;99.90
4461;DHT22;2243;48.812;9.232;2022-12-24T03:26:04;10.20;99.90
4461;DHT22;2243;48.812;9.232;2022-12-24T03:28:38;10.20;99.90
4461;DHT22;2243;48.812;9.232;2022-12-24T03:31:10;10.30;99.90
4461;DHT22;2243;48.812;9.232;2022-12-24T03:33:42;10.20;99.90
4461;DHT22;2243;48.812;9.232;2022-12-24T03:36:13;10.40;99.90
4461;DHT22;2243;48.812;9.232;2022-12-24T03:38:44;10.60;99.90
4461;DHT22;2243;48.812;9.232;2022-12-24T03:41:15;10.80;99.90
4461;DHT22;2243;48.812;9.232;2022-12-24T03:43:46;10.80;99.90
4461;DHT22;2243;48.812;9.232;2022-12-24T03:46:17;10.80;99.90
4461;DHT22;2243;48.812;9.232;2022-12-24T03:48:47;10.70;99.90
4461;DHT22;2243;48.812;9.232;2022-12-24T03:51:23;10.70;99.90
4461;DHT22;2243;48.812;9.232;2022-12-24T03:53:55;10.60;99.90
4461;DHT22;2243;48.812;9.232;2022-12-24T03:56:26;10.60;99.90
4461;DHT22;2243;48.812;9.232;2022-12-24T03:58:58;10.50;99.90
4461;DHT22;2243;48.812;9.232;2022-12-24T04:01:28;10.50;99.90
4461;DHT22;2243;48.812;9.232;2022-12-24T04:04:00;10.50;99.90
4461;DHT22;2243;48.812;9.232;2022-12-24T04:06:31;10.50;99.90
4461;DHT22;2243;48.812;9.232;2022-12-24T04:09:02;10.50;99.90
4461;DHT22;2243;48.812;9.232;2022-12-24T04:11:34;10.50;99.90
4461;DHT22;2243;48.812;9.232;2022-12-24T04:14:05;10.50;99.90
4461;DHT22;2243;48.812;9.232;2022-12-24T04:16:36;10.50;99.90
4461;DHT22;2243;48.812;9.232;2022-12-24T04:19:07;10.50;99.90
4461;DHT22;2243;48.812;9.232;2022-12-24T04:21:38;10.40;99.90
4461;DHT22;2243;48.812;9.232;2022-12-24T04:24:09;10.40;99.90
4461;DHT22;2243;48.812;9.232;2022-12-24T04:26:40;10.50;99.90
4461;DHT22;2243;48.812;9.232;2022-12-24T04:29:11;10.40;99.90
4461;DHT22;2243;48.812;9.232;2022-12-24T04:31:42;10.40;99.90
4461;DHT22;2243;48.812;9.232;2022-12-24T04:34:13;10.60;99.90
4461;DHT22;2243;48.812;9.232;2022-12-24T04:36:44;10.60;99.90
4461;DHT22;2243;48.812;9.232;2022-12-24T04:39:15;10.50;99.90
4461;DHT22;2243;48.812;9.232;2022-12-24T04:41:46;10.50;99.90
4461;DHT22;2243;48.812;9.232;2022-12-24T04:44:17;10.40;99.90
4461;DHT22;2243;48.812;9.232;2022-12-24T04:46:48;10.40;99.90
4461;DHT22;2243;48.812;9.232;2022-12-24T04:49:19;10.40;99.90
4461;DHT22;2243;48.812;9.232;2022-12-24T04:51:50;10.30;99.90
4461;DHT22;2243;48.812;9.232;2022-12-24T04:54:20;10.30;99.90
4461;DHT22;2243;48.812;9.232;2022-12-24T04:56:51;10.30;99.90
4461;DHT22;2243;48.812;9.232;2022-12-24T04:59:22;10.20;99.90
4461;DHT22;2243;48.812;9.232;2022-12-24T05:01:53;10.20;99.90
4461;DHT22;2243;48.812;9.232;2022-12-24T05:04:25;10.20;99.90
4461;DHT22;2243;48.812;9.232;2022-12-24T05:06:56;10.20;99.90
4461;DHT22;2243;48.812;9.232;2022-12-24T05:09:27;10.20;99.90
4461;DHT22;2243;48.812;9.232;2022-12-24T05:11:58;10.10;99.90
4461;DHT22;2243;48.812;9.232;2022-12-24T05:14:29;10.10;99.90
4461;DHT22;2243;48.812;9.232;2022-12-24T05:17:00;10.20;99.90
4461;DHT22;2243;48.812;9.232;2022-12-24T05:19:31;10.10;99.90
4461;DHT22;2243;48.812;9.232;2022-12-24T05:22:02;10.10;99.90
4461;DHT22;2243;48.812;9.232;2022-12-24T05:24:51;10.00;99.90
4461;DHT22;2243;48.812;9.232;2022-12-24T05:27:41;10.00;99.90
4461;DHT22;2243;48.812;9.232;2022-12-24T05:30:20;10.00;99.90
4461;DHT22;2243;48.812;9.232;2022-12-24T05:32:51;10.00;99.90
4461;DHT22;2243;48.812;9.232;2022-12-24T05:35:22;10.00;99.90
4461;DHT22;2243;48.812;9.232;2022-12-24T05:37:56;10.10;99.90
4461;DHT22;2243;48.812;9.232;2022-12-24T05:40:28;10.10;99.90
4461;DHT22;2243;48.812;9.232;2022-12-24T05:42:59;10.20;99.90
4461;DHT22;2243;48.812;9.232;2022-12-24T05:45:30;10.20;99.90
4461;DHT22;2243;48.812;9.232;2022-12-24T05:48:01;10.10;99.90
4461;DHT22;2243;48.812;9.232;2022-12-24T05:50:32;10.10;99.90
4461;DHT22;2243;48.812;9.232;2022-12-24T05:53:03;10.10;99.90
4461;DHT22;2243;48.812;9.232;2022-12-24T05:55:34;10.30;99.90
4461;DHT22;2243;48.812;9.232;2022-12-24T05:58:05;10.30;99.90
4461;DHT22;2243;48.812;9.232;2022-12-24T06:00:36;10.40;99.90
4461;DHT22;2243;48.812;9.232;2022-12-24T06:03:07;10.30;99.90
4461;DHT22;2243;48.812;9.232;2022-12-24T06:05:38;10.20;99.90
4461;DHT22;2243;48.812;9.232;2022-12-24T06:08:10;10.00;99.90
4461;DHT22;2243;48.812;9.232;2022-12-24T06:10:41;9.90;99.90
4461;DHT22;2243;48.812;9.232;2022-12-24T06:13:12;9.90;99.90
4461;DHT22;2243;48.812;9.232;2022-12-24T06:15:43;9.90;99.90
4461;DHT22;2243;48.812;9.232;2022-12-24T06:18:14;9.90;99.90
4461;DHT22;2243;48.812;9.232;2022-12-24T06:20:45;9.90;99.90
4461;DHT22;2243;48.812;9.232;2022-12-24T06:23:16;9.80;99.90
4461;DHT22;2243;48.812;9.232;2022-12-24T06:25:47;9.90;99.90
4461;DHT22;2243;48.812;9.232;2022-12-24T06:28:19;9.80;99.90
4461;DHT22;2243;48.812;9.232;2022-12-24T06:30:50;9.90;99.90
4461;DHT22;2243;48.812;9.232;2022-12-24T06:33:28;10.00;99.90
4461;DHT22;2243;48.812;9.232;2022-12-24T06:36:02;9.80;99.90
4461;DHT22;2243;48.812;9.232;2022-12-24T06:38:46;9.80;99.90
4461;DHT22;2243;48.812;9.232;2022-12-24T06:41:18;9.80;99.90
4461;DHT22;2243;48.812;9.232;2022-12-24T06:43:51;9.80;99.90
4461;DHT22;2243;48.812;9.232;2022-12-24T06:46:22;9.80;99.90
4461;DHT22;2243;48.812;9.232;2022-12-24T06:48:53;9.80;99.90
4461;DHT22;2243;48.812;9.232;2022-12-24T06:51:24;9.90;99.90
4461;DHT22;2243;48.812;9.232;2022-12-24T06:53:55;9.90;99.90
4461;DHT22;2243;48.812;9.232;2022-12-24T06:56:26;9.90;99.90
4461;DHT22;2243;48.812;9.232;2022-12-24T06:58:57;9.90;99.90
4461;DHT22;2243;48.812;9.232;2022-12-24T07:01:34;10.00;99.90
4461;DHT22;2243;48.812;9.232;2022-12-24T07:04:06;9.90;99.90
4461;DHT22;2243;48.812;9.232;2022-12-24T07:06:37;10.00;99.90
4461;DHT22;2243;48.812;9.232;2022-12-24T07:09:11;10.00;99.90
4461;DHT22;2243;48.812;9.232;2022-12-24T07:11:43;10.10;99.90
4461;DHT22;2243;48.812;9.232;2022-12-24T07:14:14;10.10;99.90
4461;DHT22;2243;48.812;9.232;2022-12-24T07:16:44;10.20;99.90
4461;DHT22;2243;48.812;9.232;2022-12-24T07:19:15;10.20;99.90
4461;DHT22;2243;48.812;9.232;2022-12-24T07:21:46;10.10;99.90
4461;DHT22;2243;48.812;9.232;2022-12-24T07:24:19;10.20;99.90
4461;DHT22;2243;48.812;9.232;2022-12-24T07:26:51;10.20;99.90
4461;DHT22;2243;48.812;9.232;2022-12-24T07:29:21;10.20;99.90
4461;DHT22;2243;48.812;9.232;2022-12-24T07:31:52;10.30;99.90
4461;DHT22;2243;48.812;9.232;2022-12-24T07:34:23;10.30;99.90
4461;DHT22;2243;48.812;9.232;2022-12-24T07:36:54;10.40;99.90
4461;DHT22;2243;48.812;9.232;2022-12-24T07:39:25;10.50;99.90
4461;DHT22;2243;48.812;9.232;2022-12-24T07:41:56;10.40;99.90
4461;DHT22;2243;48.812;9.232;2022-12-24T07:44:27;10.50;99.90
4461;DHT22;2243;48.812;9.232;2022-12-24T07:46:58;10.40;99.90
4461;DHT22;2243;48.812;9.232;2022-12-24T07:49:29;10.40;99.90
4461;DHT22;2243;48.812;9.232;2022-12-24T07:52:01;10.30;99.90
4461;DHT22;2243;48.812;9.232;2022-12-24T07:54:32;10.20;99.90
4461;DHT22;2243;48.812;9.232;2022-12-24T07:57:03;10.10;99.90
4461;DHT22;2243;48.812;9.232;2022-12-24T07:59:34;10.10;99.90
4461;DHT22;2243;48.812;9.232;2022-12-24T08:02:05;10.10;99.90
4461;DHT22;2243;48.812;9.232;2022-12-24T08:04:42;10.10;99.90
4461;DHT22;2243;48.812;9.232;2022-12-24T08:07:12;10.20;99.90
4461;DHT22;2243;48.812;9.232;2022-12-24T08:09:43;10.30;99.90
4461;DHT22;2243;48.812;9.232;2022-12-24T08:12:15;10.20;99.90
4461;DHT22;2243;48.812;9.232;2022-12-24T08:14:46;10.20;99.90
4461;DHT22;2243;48.812;9.232;2022-12-24T08:17:17;10.20;99.90
4461;DHT22;2243;48.812;9.232;2022-12-24T08:19:48;10.10;99.90
4461;DHT22;2243;48.812;9.232;2022-12-24T08:22:19;10.30;99.90
4461;DHT22;2243;48.812;9.232;2022-12-24T08:24:50;10.50;99.90
4461;DHT22;2243;48.812;9.232;2022-12-24T08:27:21;10.40;99.90
4461;DHT22;2243;48.812;9.232;2022-12-24T08:29:51;10.30;99.90
4461;DHT22;2243;48.812;9.232;2022-12-24T08:32:22;10.30;99.90
4461;DHT22;2243;48.812;9.232;2022-12-24T08:34:53;10.10;99.90
4461;DHT22;2243;48.812;9.232;2022-12-24T08:37:24;10.20;99.90
4461;DHT22;2243;48.812;9.232;2022-12-24T08:39:55;10.30;99.90
4461;DHT22;2243;48.812;9.232;2022-12-24T08:42:26;10.30;99.90
4461;DHT22;2243;48.812;9.232;2022-12-24T08:44:57;10.40;99.90
4461;DHT22;2243;48.812;9.232;2022-12-24T08:47:28;10.50;99.90
4461;DHT22;2243;48.812;9.232;2022-12-24T08:49:59;10.50;99.90
4461;DHT22;2243;48.812;9.232;2022-12-24T08:52:30;10.50;99.90
4461;DHT22;2243;48.812;9.232;2022-12-24T08:55:01;10.50;99.90
4461;DHT22;2243;48.812;9.232;2022-12-24T08:57:35;10.60;99.90
4461;DHT22;2243;48.812;9.232;2022-12-24T09:00:07;10.50;99.90
4461;DHT22;2243;48.812;9.232;2022-12-24T09:02:39;10.40;99.90
4461;DHT22;2243;48.812;9.232;2022-12-24T09:05:10;10.40;99.90
4461;DHT22;2243;48.812;9.232;2022-12-24T09:07:41;10.40;99.90
4461;DHT22;2243;48.812;9.232;2022-12-24T09:10:12;10.30;99.90
4461;DHT22;2243;48.812;9.232;2022-12-24T09:12:54;10.40;99.90
4461;DHT22;2243;48.812;9.232;2022-12-24T09:15:54;10.50;99.90
4461;DHT22;2243;48.812;9.232;2022-12-24T09:18:25;10.60;99.90
4461;DHT22;2243;48.812;9.232;2022-12-24T09:21:01;10.70;99.90
4461;DHT22;2243;48.812;9.232;2022-12-24T09:23:35;10.80;99.90
4461;DHT22;2243;48.812;9.232;2022-12-24T09:26:16;10.80;99.90
4461;DHT22;2243;48.812;9.232;2022-12-24T09:28:49;10.80;99.90
4461;DHT22;2243;48.812;9.232;2022-12-24T09:31:20;10.90;99.90
4461;DHT22;2243;48.812;9.232;2022-12-24T09:33:52;10.90;99.90
4461;DHT22;2243;48.812;9.232;2022-12-24T09:36:23;11.00;99.90
4461;DHT22;2243;48.812;9.232;2022-12-24T09:38:54;11.10;99.90
4461;DHT22;2243;48.812;9.232;2022-12-24T09:47:31;11.20;99.90
4461;DHT22;2243;48.812;9.232;2022-12-24T09:55:56;11.30;99.90
4461;DHT22;2243;48.812;9.232;2022-12-24T10:02:19;11.50;99.90
4461;DHT22;2243;48.812;9.232;2022-12-24T10:04:50;11.40;99.90
4461;DHT22;2243;48.812;9.232;2022-12-24T10:10:51;11.70;99.90
4461;DHT22;2243;48.812;9.232;2022-12-24T10:26:03;11.90;99.90
4461;DHT22;2243;48.812;9.232;2022-12-24T10:28:55;12.00;99.90
4461;DHT22;2243;48.812;9.232;2022-12-24T10:31:35;12.00;99.90
4461;DHT22;2243;48.812;9.232;2022-12-24T10:34:18;12.00;99.90
4461;DHT22;2243;48.812;9.232;2022-12-24T10:36:52;12.10;99.90
4461;DHT22;2243;48.812;9.232;2022-12-24T10:39:25;12.00;99.90
4461;DHT22;2243;48.812;9.232;2022-12-24T10:41:58;12.00;99.90
4461;DHT22;2243;48.812;9.232;2022-12-24T10:44:31;12.00;99.90
4461;DHT22;2243;48.812;9.232;2022-12-24T10:47:04;12.00;99.90
4461;DHT22;2243;48.812;9.232;2022-12-24T10:49:48;11.90;99.90
4461;DHT22;2243;48.812;9.232;2022-12-24T10:52:28;12.00;99.90
4461;DHT22;2243;48.812;9.232;2022-12-24T10:58:03;12.10;99.90
4461;DHT22;2243;48.812;9.232;2022-12-24T11:00:53;12.10;99.90
4461;DHT22;2243;48.812;9.232;2022-12-24T11:03:32;12.20;99.90
4461;DHT22;2243;48.812;9.232;2022-12-24T11:06:11;12.20;99.90
4461;DHT22;2243;48.812;9.232;2022-12-24T11:08:44;12.20;99.90
4461;DHT22;2243;48.812;9.232;2022-12-24T11:11:17;12.30;99.90
4461;DHT22;2243;48.812;9.232;2022-12-24T11:16:29;12.30;99.90
4461;DHT22;2243;48.812;9.232;2022-12-24T11:19:19;12.30;99.90
4461;DHT22;2243;48.812;9.232;2022-12-24T11:22:31;12.30;99.90
4461;DHT22;2243;48.812;9.232;2022-12-24T11:25:26;12.40;99.90
4461;DHT22;2243;48.812;9.232;2022-12-24T11:28:17;12.30;99.90
4461;DHT22;2243;48.812;9.232;2022-12-24T11:31:15;12.30;99.90
4461;DHT22;2243;48.812;9.232;2022-12-24T11:33:50;12.30;99.90
4461;DHT22;2243;48.812;9.232;2022-12-24T11:36:25;12.30;99.90
4461;DHT22;2243;48.812;9.232;2022-12-24T11:38:57;12.40;99.90
4461;DHT22;2243;48.812;9.232;2022-12-24T11:41:35;12.20;99.90
4461;DHT22;2243;48.812;9.232;2022-12-24T11:44:07;12.20;99.90
4461;DHT22;2243;48.812;9.232;2022-12-24T11:46:43;12.30;99.90
4461;DHT22;2243;48.812;9.232;2022-12-24T11:55:02;12.40;99.90
4461;DHT22;2243;48.812;9.232;2022-12-24T12:00:50;12.50;99.90
4461;DHT22;2243;48.812;9.232;2022-12-24T12:03:29;12.60;99.90
4461;DHT22;2243;48.812;9.232;2022-12-24T12:06:55;12.60;99.90
4461;DHT22;2243;48.812;9.232;2022-12-24T12:09:21;12.70;99.90
4461;DHT22;2243;48.812;9.232;2022-12-24T12:12:11;12.70;99.90
4461;DHT22;2243;48.812;9.232;2022-12-24T12:15:57;12.80;99.90
4461;DHT22;2243;48.812;9.232;2022-12-24T12:18:11;12.70;99.90
4461;DHT22;2243;48.812;9.232;2022-12-24T12:20:46;12.70;99.90
4461;DHT22;2243;48.812;9.232;2022-12-24T12:23:34;12.70;99.90
4461;DHT22;2243;48.812;9.232;2022-12-24T12:26:11;12.70;99.90
4461;DHT22;2243;48.812;9.232;2022-12-24T12:28:57;12.60;99.90
4461;DHT22;2243;48.812;9.232;2022-12-24T12:31:55;12.50;99.90
4461;DHT22;2243;48.812;9.232;2022-12-24T12:35:00;12.50;99.90
4461;DHT22;2243;48.812;9.232;2022-12-24T12:37:47;12.40;99.90
4461;DHT22;2243;48.812;9.232;2022-12-24T12:52:25;12.30;99.90
4461;DHT22;2243;48.812;9.232;2022-12-24T12:57:59;12.30;99.90
4461;DHT22;2243;48.812;9.232;2022-12-24T13:00:34;12.50;99.90
4461;DHT22;2243;48.812;9.232;2022-12-24T13:03:42;12.30;99.90
4461;DHT22;2243;48.812;9.232;2022-12-24T13:06:38;12.30;99.90
4461;DHT22;2243;48.812;9.232;2022-12-24T13:20:46;12.60;99.90
4461;DHT22;2243;48.812;9.232;2022-12-24T13:23:24;12.70;99.90
4461;DHT22;2243;48.812;9.232;2022-12-24T13:25:57;12.70;99.90
4461;DHT22;2243;48.812;9.232;2022-12-24T13:28:32;12.90;99.90
4461;DHT22;2243;48.812;9.232;2022-12-24T13:36:14;13.00;99.90
4461;DHT22;2243;48.812;9.232;2022-12-24T13:38:50;13.00;99.90
4461;DHT22;2243;48.812;9.232;2022-12-24T13:44:20;13.10;99.90
4461;DHT22;2243;48.812;9.232;2022-12-24T13:49:44;13.10;99.90
4461;DHT22;2243;48.812;9.232;2022-12-24T13:52:29;13.10;99.90
4461;DHT22;2243;48.812;9.232;2022-12-24T13:55:07;13.00;99.90
4461;DHT22;2243;48.812;9.232;2022-12-24T13:57:57;13.10;99.90
4461;DHT22;2243;48.812;9.232;2022-12-24T14:00:42;13.10;99.90
4461;DHT22;2243;48.812;9.232;2022-12-24T14:06:23;13.00;99.90
4461;DHT22;2243;48.812;9.232;2022-12-24T14:09:08;13.00;99.90
4461;DHT22;2243;48.812;9.232;2022-12-24T14:14:35;12.80;99.90
4461;DHT22;2243;48.812;9.232;2022-12-24T14:17:27;12.70;99.90
4461;DHT22;2243;48.812;9.232;2022-12-24T14:20:00;12.70;99.90
4461;DHT22;2243;48.812;9.232;2022-12-24T14:22:33;12.70;99.90
4461;DHT22;2243;48.812;9.232;2022-12-24T14:25:22;12.60;99.90
4461;DHT22;2243;48.812;9.232;2022-12-24T14:28:13;12.50;99.90
4461;DHT22;2243;48.812;9.232;2022-12-24T14:30:59;12.40;99.90
4461;DHT22;2243;48.812;9.232;2022-12-24T14:33:33;12.30;99.90
4461;DHT22;2243;48.812;9.232;2022-12-24T14:36:05;12.30;99.90
4461;DHT22;2243;48.812;9.232;2022-12-24T14:38:40;12.20;99.90
4461;DHT22;2243;48.812;9.232;2022-12-24T14:47:39;12.20;99.90
4461;DHT22;2243;48.812;9.232;2022-12-24T14:53:25;12.90;99.90
4461;DHT22;2243;48.812;9.232;2022-12-24T14:55:58;13.10;99.90
4461;DHT22;2243;48.812;9.232;2022-12-24T14:58:32;13.10;99.90
4461;DHT22;2243;48.812;9.232;2022-12-24T15:01:21;12.80;99.90
4461;DHT22;2243;48.812;9.232;2022-12-24T15:04:03;12.60;99.90
4461;DHT22;2243;48.812;9.232;2022-12-24T15:06:48;12.40;99.90
4461;DHT22;2243;48.812;9.232;2022-12-24T15:09:30;12.30;99.90
4461;DHT22;2243;48.812;9.232;2022-12-24T15:12:03;12.40;99.90
4461;DHT22;2243;48.812;9.232;2022-12-24T15:14:41;12.30;99.90
4461;DHT22;2243;48.812;9.232;2022-12-24T15:17:13;12.00;99.90
4461;DHT22;2243;48.812;9.232;2022-12-24T15:19:48;11.90;99.90
4461;DHT22;2243;48.812;9.232;2022-12-24T15:22:27;12.00;99.90
4461;DHT22;2243;48.812;9.232;2022-12-24T15:24:59;12.00;99.90
4461;DHT22;2243;48.812;9.232;2022-12-24T15:27:32;11.90;99.90
4461;DHT22;2243;48.812;9.232;2022-12-24T15:30:11;11.80;99.90
4461;DHT22;2243;48.812;9.232;2022-12-24T15:32:44;11.60;99.90
4461;DHT22;2243;48.812;9.232;2022-12-24T15:35:51;11.60;99.90
4461;DHT22;2243;48.812;9.232;2022-12-24T15:41:22;11.70;99.90
4461;DHT22;2243;48.812;9.232;2022-12-24T15:44:00;11.60;99.90
4461;DHT22;2243;48.812;9.232;2022-12-24T15:46:32;11.50;99.90
4461;DHT22;2243;48.812;9.232;2022-12-24T15:49:03;11.50;99.90
4461;DHT22;2243;48.812;9.232;2022-12-24T15:51:35;11.40;99.90
4461;DHT22;2243;48.812;9.232;2022-12-24T15:54:12;11.40;99.90
4461;DHT22;2243;48.812;9.232;2022-12-24T15:56:45;11.30;99.90
4461;DHT22;2243;48.812;9.232;2022-12-24T15:59:29;11.30;99.90
4461;DHT22;2243;48.812;9.232;2022-12-24T16:05:26;11.10;99.90
4461;DHT22;2243;48.812;9.232;2022-12-24T16:10:42;11.00;99.90
4461;DHT22;2243;48.812;9.232;2022-12-24T16:13:28;11.00;99.90
4461;DHT22;2243;48.812;9.232;2022-12-24T16:16:03;10.90;99.90
4461;DHT22;2243;48.812;9.232;2022-12-24T16:18:56;10.90;99.90
4461;DHT22;2243;48.812;9.232;2022-12-24T16:21:34;10.90;99.90
4461;DHT22;2243;48.812;9.232;2022-12-24T16:24:28;10.80;99.90
4461;DHT22;2243;48.812;9.232;2022-12-24T16:27:00;10.60;99.90
4461;DHT22;2243;48.812;9.232;2022-12-24T16:29:31;10.70;99.90
4461;DHT22;2243;48.812;9.232;2022-12-24T16:32:01;10.60;99.90
4461;DHT22;2243;48.812;9.232;2022-12-24T16:34:32;10.60;99.90
4461;DHT22;2243;48.812;9.232;2022-12-24T16:37:03;10.60;99.90
4461;DHT22;2243;48.812;9.232;2022-12-24T16:39:35;10.60;99.90
4461;DHT22;2243;48.812;9.232;2022-12-24T16:42:05;10.50;99.90
4461;DHT22;2243;48.812;9.232;2022-12-24T16:44:55;10.50;99.90
4461;DHT22;2243;48.812;9.232;2022-12-24T16:47:28;10.50;99.90
4461;DHT22;2243;48.812;9.232;2022-12-24T16:50:14;10.50;99.90
4461;DHT22;2243;48.812;9.232;2022-12-24T16:52:46;10.50;99.90
4461;DHT22;2243;48.812;9.232;2022-12-24T16:55:17;10.50;99.90
4461;DHT22;2243;48.812;9.232;2022-12-24T16:57:48;10.40;99.90
4461;DHT22;2243;48.812;9.232;2022-12-24T17:00:21;10.50;99.90
4461;DHT22;2243;48.812;9.232;2022-12-24T17:02:52;10.50;99.90
4461;DHT22;2243;48.812;9.232;2022-12-24T17:05:23;10.50;99.90
4461;DHT22;2243;48.812;9.232;2022-12-24T17:07:54;10.50;99.90
4461;DHT22;2243;48.812;9.232;2022-12-24T17:10:26;10.60;99.90
4461;DHT22;2243;48.812;9.232;2022-12-24T17:12:57;10.50;99.90
4461;DHT22;2243;48.812;9.232;2022-12-24T17:15:28;10.50;99.90
4461;DHT22;2243;48.812;9.232;2022-12-24T17:17:59;10.60;99.90
4461;DHT22;2243;48.812;9.232;2022-12-24T17:20:30;10.60;99.90
4461;DHT22;2243;48.812;9.232;2022-12-24T17:23:01;10.60;99.90
4461;DHT22;2243;48.812;9.232;2022-12-24T17:25:34;10.60;99.90
4461;DHT22;2243;48.812;9.232;2022-12-24T17:28:06;10.60;99.90
4461;DHT22;2243;48.812;9.232;2022-12-24T17:30:38;10.50;99.90
4461;DHT22;2243;48.812;9.232;2022-12-24T17:33:10;10.50;99.90
4461;DHT22;2243;48.812;9.232;2022-12-24T17:35:44;10.50;99.90
4461;DHT22;2243;48.812;9.232;2022-12-24T17:38:17;10.50;99.90
4461;DHT22;2243;48.812;9.232;2022-12-24T17:40:48;10.50;99.90
4461;DHT22;2243;48.812;9.232;2022-12-24T17:43:19;10.50;99.90
4461;DHT22;2243;48.812;9.232;2022-12-24T17:45:50;10.40;99.90
4461;DHT22;2243;48.812;9.232;2022-12-24T17:48:21;10.50;99.90
4461;DHT22;2243;48.812;9.232;2022-12-24T17:50:52;10.50;99.90
4461;DHT22;2243;48.812;9.232;2022-12-24T17:53:23;10.50;99.90
4461;DHT22;2243;48.812;9.232;2022-12-24T17:55:54;10.50;99.90
4461;DHT22;2243;48.812;9.232;2022-12-24T17:58:24;10.50;99.90
4461;DHT22;2243;48.812;9.232;2022-12-24T18:00:56;10.40;99.90
4461;DHT22;2243;48.812;9.232;2022-12-24T18:03:27;10.50;99.90
4461;DHT22;2243;48.812;9.232;2022-12-24T18:06:06;10.50;99.90
4461;DHT22;2243;48.812;9.232;2022-12-24T18:08:42;10.40;99.90
4461;DHT22;2243;48.812;9.232;2022-12-24T18:11:19;10.40;99.90
4461;DHT22;2243;48.812;9.232;2022-12-24T18:13:56;10.50;99.90
4461;DHT22;2243;48.812;9.232;2022-12-24T18:16:37;10.60;99.90
4461;DHT22;2243;48.812;9.232;2022-12-24T18:19:11;10.60;99.90
4461;DHT22;2243;48.812;9.232;2022-12-24T18:21:42;10.60;99.90
4461;DHT22;2243;48.812;9.232;2022-12-24T18:24:13;10.60;99.90
4461;DHT22;2243;48.812;9.232;2022-12-24T18:26:44;10.60;99.90
4461;DHT22;2243;48.812;9.232;2022-12-24T18:29:16;10.60;99.90
4461;DHT22;2243;48.812;9.232;2022-12-24T18:31:47;10.60;99.90
4461;DHT22;2243;48.812;9.232;2022-12-24T18:34:18;10.60;99.90
4461;DHT22;2243;48.812;9.232;2022-12-24T18:36:49;10.60;99.90
4461;DHT22;2243;48.812;9.232;2022-12-24T18:39:25;10.60;99.90
4461;DHT22;2243;48.812;9.232;2022-12-24T18:41:56;10.60;99.90
4461;DHT22;2243;48.812;9.232;2022-12-24T18:44:27;10.70;99.90
4461;DHT22;2243;48.812;9.232;2022-12-24T18:46:57;10.60;99.90
4461;DHT22;2243;48.812;9.232;2022-12-24T18:49:29;10.70;99.90
4461;DHT22;2243;48.812;9.232;2022-12-24T18:52:05;10.70;99.90
4461;DHT22;2243;48.812;9.232;2022-12-24T18:54:38;10.70;99.90
4461;DHT22;2243;48.812;9.232;2022-12-24T18:57:10;10.70;99.90
4461;DHT22;2243;48.812;9.232;2022-12-24T18:59:41;10.70;99.90
4461;DHT22;2243;48.812;9.232;2022-12-24T19:02:12;10.70;99.90
4461;DHT22;2243;48.812;9.232;2022-12-24T19:04:43;10.80;99.90
4461;DHT22;2243;48.812;9.232;2022-12-24T19:07:14;10.80;99.90
4461;DHT22;2243;48.812;9.232;2022-12-24T19:09:45;10.80;99.90
4461;DHT22;2243;48.812;9.232;2022-12-24T19:12:18;10.90;99.90
4461;DHT22;2243;48.812;9.232;2022-12-24T19:14:48;11.00;99.90